Řízení letového provozu České republiky
OPMET data - Ceska Republika Aktualizace: 21.04.2018 03:25:06  UTC
SIGMET / AIRMET - NIL
Warning / Vystraha - NIL
 
METAR / SPECI
METAR LKCV 210300Z 14004KT CAVOK 12/08 Q1020 NOSIG RMK BLACK=
METAR LKKB 210300Z 20003KT 180V250 CAVOK 12/08 Q1020 RMK BLU=
METAR LKKU NIL
METAR LKKV 210300Z 19002KT CAVOK 08/05 Q1020 RMK REG QNH 1016=
METAR LKLN 210300Z AUTO VRB01KT CAVOK 08/07 Q1020=
METAR LKMT 210301Z 23004KT CAVOK 07/03 Q1020 NOSIG=
METAR LKNA 210300Z 35004KT CAVOK 11/08 Q1021 NOSIG RMK BLU=
METAR LKPD 210300Z 24002KT CAVOK 07/07 Q1020 RMK BLU=
METAR LKPR 210300Z 21005KT CAVOK 11/06 Q1019 NOSIG RMK REG QNH 1016=
METAR LKTB 210300Z 12002KT CAVOK 08/05 Q1020 NOSIG RMK REG QNH 1016=
METAR LKVO NIL
TAF
TAF AMD LKCV 201100Z 2017/2112 CNL=
TAF LKKB 202300Z 2100/2200 VRB02KT CAVOK      TEMPO 2116/2200 03010G20KT=
TAF LKKU NIL
TAF LKKV 202300Z 2100/2206 VRB02KT CAVOK      BECMG 2107/2109 33006KT=
TAF LKLN NIL
TAF LKMT 202300Z 2100/2206 19006KT CAVOK      BECMG 2107/2109 23012KT      BECMG 2115/2118 02008KT=
TAF COR LKNA 202300Z 2100/2200 VRB02KT CAVOK      BECMG 2106/2108 16006KT      BECMG 2116/2118 01006KT=
TAF LKPD 202300Z 2100/2200 VRB02KT CAVOK      BECMG 2110/2112 32006KT      TEMPO 2112/2116 32012KT      TEMPO 2118/2121 03014KT      BECMG 2122/2200 VRB02KT=
TAF LKPR 202300Z 2100/2206 19004KT CAVOK      BECMG 2107/2109 35006KT      TEMPO 2110/2118 02012KT=
TAF LKTB 202300Z 2100/2206 VRB02KT CAVOK      BECMG 2107/2109 17006KT      BECMG 2118/2121 05008KT=
TAF LKVO NIL